Time;durP1;ratioP1;P1;durP2;ratioP2;P2;SDS_P1;SDS_P2;PMS_P1;PMS_P2;Temp;Humidity;BMP_temperature;BMP_pressure;BME280_temperature;BME280_humidity;BME280_pressure;Samples;Min_cycle;Max_cycle;Signal;HPM_P1;HPM_P2
2023/11/20 00:02:16;;;;;;;;;6.33;1.00;;;;;;;;5035726;28;45522;-70
2023/11/20 00:04:41;;;;;;;;;12.67;2.00;;;;;;;;5036202;28;45193;-70
2023/11/20 00:07:07;;;;;;;;;8.00;2.00;;;;;;;;5036081;28;45604;-71
2023/11/20 00:09:32;;;;;;;;;10.00;4.00;;;;;;;;5031225;28;46415;-74
2023/11/20 00:11:57;;;;;;;;;3.67;0.00;;;;;;;;5036189;28;45374;-70
2023/11/20 00:14:23;;;;;;;;;4.00;2.00;;;;;;;;5035515;28;45335;-72
2023/11/20 00:16:48;;;;;;;;;3.67;2.00;;;;;;;;5035819;28;45741;-75
2023/11/20 00:19:13;;;;;;;;;1.00;1.00;;;;;;;;5035516;28;45237;-71
2023/11/20 00:21:39;;;;;;;;;6.33;1.00;;;;;;;;5035588;28;45517;-74
2023/11/20 00:24:06;;;;;;;;;3.00;1.33;;;;;;;;5035851;28;45438;-72
2023/11/20 00:26:31;;;;;;;;;1.33;1.00;;;;;;;;5035214;28;46700;-69
2023/11/20 00:28:57;;;;;;;;;3.00;1.00;;;;;;;;5035939;28;45291;-69
2023/11/20 00:31:23;;;;;;;;;2.33;2.00;;;;;;;;5035191;28;45212;-72
2023/11/20 00:33:49;;;;;;;;;3.00;2.33;;;;;;;;5038978;28;45331;-70
2023/11/20 00:36:14;;;;;;;;;2.00;1.00;;;;;;;;5038731;28;46472;-70
2023/11/20 00:38:39;;;;;;;;;7.67;3.00;;;;;;;;5038820;28;45527;-70
2023/11/20 00:41:04;;;;;;;;;7.00;0.00;;;;;;;;5038949;28;45362;-70
2023/11/20 00:43:31;;;;;;;;;6.00;2.00;;;;;;;;5038859;28;45215;-72
2023/11/20 00:45:56;;;;;;;;;3.67;0.67;;;;;;;;5038979;28;47433;-72
2023/11/20 00:48:21;;;;;;;;;6.33;2.00;;;;;;;;5029167;28;45391;-70
2023/11/20 00:50:47;;;;;;;;;9.00;1.00;;;;;;;;5038973;28;45337;-71
2023/11/20 00:53:12;;;;;;;;;7.00;1.33;;;;;;;;5038585;28;45497;-69
2023/11/20 00:55:37;;;;;;;;;4.00;2.00;;;;;;;;5037608;28;46420;-70
2023/11/20 00:58:02;;;;;;;;;5.00;2.00;;;;;;;;5038809;28;45333;-69
2023/11/20 01:00:27;;;;;;;;;5.00;1.67;;;;;;;;5037716;28;45278;-73
2023/11/20 01:02:53;;;;;;;;;4.00;2.00;;;;;;;;5038370;28;45406;-71
2023/11/20 01:05:18;;;;;;;;;3.33;2.00;;;;;;;;5038509;28;45375;-72
2023/11/20 01:07:43;;;;;;;;;4.67;1.00;;;;;;;;5038193;28;45385;-69
2023/11/20 01:10:09;;;;;;;;;6.00;2.33;;;;;;;;5038602;28;45523;-70
2023/11/20 01:12:34;;;;;;;;;2.67;1.00;;;;;;;;5038760;28;45497;-72
2023/11/20 01:14:59;;;;;;;;;7.00;0.33;;;;;;;;5038379;28;46447;-73
2023/11/20 01:17:24;;;;;;;;;5.33;3.33;;;;;;;;5038255;28;45337;-72
2023/11/20 01:19:50;;;;;;;;;4.00;2.00;;;;;;;;5037956;28;45501;-70
2023/11/20 01:22:15;;;;;;;;;5.33;2.00;;;;;;;;5038473;28;45399;-70
2023/11/20 01:24:40;;;;;;;;;3.67;2.00;;;;;;;;5037772;28;45659;-72
2023/11/20 01:27:06;;;;;;;;;5.33;1.00;;;;;;;;5037960;28;45343;-73
2023/11/20 01:29:31;;;;;;;;;8.33;3.00;;;;;;;;5037886;28;45499;-71
2023/11/20 01:31:57;;;;;;;;;6.67;3.00;;;;;;;;5038087;28;45514;-73
2023/11/20 01:34:22;;;;;;;;;5.33;1.00;;;;;;;;5037806;28;45373;-69
2023/11/20 01:36:48;;;;;;;;;5.00;2.00;;;;;;;;5037958;28;45459;-71
2023/11/20 01:39:13;;;;;;;;;2.33;0.00;;;;;;;;5037984;28;45379;-69
2023/11/20 01:41:38;;;;;;;;;4.00;1.00;;;;;;;;5037119;28;45521;-69
2023/11/20 01:44:04;;;;;;;;;3.00;0.00;;;;;;;;5037211;28;45713;-70
2023/11/20 01:46:29;;;;;;;;;3.00;1.00;;;;;;;;5037895;28;45259;-70
2023/11/20 01:48:55;;;;;;;;;6.00;2.00;;;;;;;;5028069;28;45445;-73
2023/11/20 01:51:20;;;;;;;;;2.00;1.67;;;;;;;;5037810;28;45338;-72
2023/11/20 01:53:46;;;;;;;;;8.00;1.33;;;;;;;;5037443;28;45382;-70
2023/11/20 01:56:12;;;;;;;;;3.00;2.00;;;;;;;;5037434;28;45170;-73
2023/11/20 01:58:38;;;;;;;;;3.00;1.00;;;;;;;;5037631;28;45374;-70
2023/11/20 02:01:03;;;;;;;;;3.67;1.00;;;;;;;;5030181;28;45339;-69
2023/11/20 02:03:28;;;;;;;;;2.33;2.00;;;;;;;;5032634;28;47215;-69
2023/11/20 02:05:54;;;;;;;;;4.33;2.00;;;;;;;;5023247;28;45352;-71
2023/11/20 02:08:19;;;;;;;;;4.00;1.00;;;;;;;;5032468;28;45351;-71
2023/11/20 02:10:44;;;;;;;;;1.00;0.00;;;;;;;;5037329;28;45458;-69
2023/11/20 02:13:09;;;;;;;;;3.00;1.00;;;;;;;;5027051;28;46446;-70
2023/11/20 02:15:35;;;;;;;;;4.33;1.00;;;;;;;;5037263;28;45322;-69
2023/11/20 02:18:00;;;;;;;;;3.00;1.00;;;;;;;;5037527;28;45423;-69
2023/11/20 02:20:26;;;;;;;;;5.00;2.00;;;;;;;;5031478;28;45777;-71
2023/11/20 02:22:51;;;;;;;;;1.00;1.00;;;;;;;;5036088;28;46480;-69
2023/11/20 02:25:16;;;;;;;;;1.67;1.00;;;;;;;;5036938;28;45538;-69
2023/11/20 02:27:53;;;;;;;;;4.00;1.00;;;;;;;;5037516;28;45284;-69
2023/11/20 02:30:18;;;;;;;;;6.33;1.00;;;;;;;;5037190;28;45442;-69
2023/11/20 02:32:44;;;;;;;;;6.67;2.00;;;;;;;;5037222;28;46349;-70
2023/11/20 02:35:18;;;;;;;;;2.00;1.00;;;;;;;;5036963;28;45200;-69
2023/11/20 02:37:44;;;;;;;;;4.00;1.67;;;;;;;;5035392;28;45450;-69
2023/11/20 02:40:10;;;;;;;;;2.00;1.00;;;;;;;;5031161;28;45479;-70
2023/11/20 02:42:35;;;;;;;;;4.00;1.00;;;;;;;;5036611;28;46535;-69
2023/11/20 02:45:01;;;;;;;;;5.00;2.00;;;;;;;;5036830;28;45411;-69
2023/11/20 02:47:26;;;;;;;;;1.67;1.67;;;;;;;;5034143;28;45505;-69
2023/11/20 02:49:51;;;;;;;;;3.00;1.00;;;;;;;;5037064;28;45413;-73
2023/11/20 02:52:17;;;;;;;;;5.00;0.00;;;;;;;;5036091;28;45439;-71
2023/11/20 02:54:43;;;;;;;;;2.00;2.00;;;;;;;;5036095;28;45485;-69
2023/11/20 02:57:09;;;;;;;;;5.67;1.00;;;;;;;;5036858;28;45449;-72
2023/11/20 02:59:34;;;;;;;;;1.33;0.00;;;;;;;;5035297;28;45785;-73
2023/11/20 03:01:59;;;;;;;;;5.00;1.33;;;;;;;;5036282;28;46311;-69
2023/11/20 03:04:24;;;;;;;;;2.67;1.00;;;;;;;;5036806;28;45464;-70
2023/11/20 03:06:49;;;;;;;;;0.00;0.00;;;;;;;;5037221;28;45293;-72
2023/11/20 03:09:14;;;;;;;;;2.67;1.00;;;;;;;;5036536;28;45531;-69
2023/11/20 03:11:40;;;;;;;;;6.00;1.00;;;;;;;;5030504;28;45995;-72
2023/11/20 03:14:05;;;;;;;;;6.00;3.00;;;;;;;;5029766;28;45311;-69
2023/11/20 03:16:31;;;;;;;;;3.00;1.00;;;;;;;;5034862;28;45453;-69
2023/11/20 03:18:57;;;;;;;;;4.00;1.00;;;;;;;;5036605;28;45394;-69
2023/11/20 03:21:23;;;;;;;;;3.00;1.00;;;;;;;;5035772;28;45785;-69
2023/11/20 03:23:49;;;;;;;;;1.00;1.00;;;;;;;;5036652;28;45251;-72
2023/11/20 03:26:14;;;;;;;;;2.00;1.00;;;;;;;;5036916;28;45415;-72
2023/11/20 03:28:39;;;;;;;;;3.00;1.00;;;;;;;;5036618;28;45481;-69
2023/11/20 03:31:04;;;;;;;;;3.00;1.00;;;;;;;;5035985;28;45790;-69
2023/11/20 03:33:29;;;;;;;;;3.67;2.00;;;;;;;;5036364;28;45216;-72
2023/11/20 03:35:55;;;;;;;;;3.67;1.00;;;;;;;;5036257;28;45271;-69
2023/11/20 03:38:20;;;;;;;;;4.33;1.00;;;;;;;;5036614;28;45449;-69
2023/11/20 03:40:45;;;;;;;;;4.33;0.00;;;;;;;;5035860;28;45268;-69
2023/11/20 03:43:10;;;;;;;;;4.00;1.00;;;;;;;;5035140;28;45297;-71
2023/11/20 03:45:35;;;;;;;;;2.00;1.00;;;;;;;;5035904;28;45437;-69
2023/11/20 03:48:01;;;;;;;;;6.33;1.33;;;;;;;;5026476;28;45438;-69
2023/11/20 03:50:26;;;;;;;;;5.67;1.00;;;;;;;;5033720;28;46188;-73
2023/11/20 03:52:51;;;;;;;;;6.67;1.00;;;;;;;;5036179;28;45553;-69
2023/11/20 03:55:17;;;;;;;;;1.33;1.00;;;;;;;;5035303;28;45391;-73
2023/11/20 03:57:44;;;;;;;;;1.33;1.33;;;;;;;;5036129;28;45338;-72
2023/11/20 04:00:09;;;;;;;;;3.67;1.00;;;;;;;;5034844;28;46085;-72
2023/11/20 04:02:36;;;;;;;;;5.00;0.67;;;;;;;;5035879;28;45423;-70
2023/11/20 04:05:01;;;;;;;;;4.00;3.00;;;;;;;;5036056;28;45300;-70
2023/11/20 04:07:26;;;;;;;;;4.00;1.00;;;;;;;;5039327;28;45526;-70
2023/11/20 04:09:51;;;;;;;;;5.00;1.00;;;;;;;;5038192;28;46287;-69
2023/11/20 04:12:16;;;;;;;;;2.67;1.00;;;;;;;;5028654;28;45435;-70
2023/11/20 04:14:42;;;;;;;;;4.33;1.00;;;;;;;;5039277;28;45557;-69
2023/11/20 04:17:07;;;;;;;;;2.00;1.00;;;;;;;;5039646;28;45316;-72
2023/11/20 04:19:33;;;;;;;;;2.33;1.00;;;;;;;;5038551;28;45690;-69
2023/11/20 04:21:58;;;;;;;;;5.33;0.67;;;;;;;;5038871;28;45339;-74
2023/11/20 04:24:23;;;;;;;;;4.00;1.00;;;;;;;;5038087;28;45446;-71
2023/11/20 04:26:48;;;;;;;;;1.33;0.33;;;;;;;;5038801;28;45290;-69
2023/11/20 04:29:14;;;;;;;;;5.67;1.00;;;;;;;;5038876;28;45260;-70
2023/11/20 04:31:39;;;;;;;;;5.00;2.00;;;;;;;;5039170;28;45189;-74
2023/11/20 04:34:05;;;;;;;;;2.00;1.00;;;;;;;;5038992;28;45458;-72
2023/11/20 04:36:30;;;;;;;;;1.33;0.67;;;;;;;;5038924;28;45410;-69
2023/11/20 04:38:55;;;;;;;;;5.00;0.33;;;;;;;;5038466;28;46512;-74
2023/11/20 04:41:20;;;;;;;;;5.33;1.00;;;;;;;;5038753;28;45287;-71
2023/11/20 04:43:45;;;;;;;;;5.33;2.33;;;;;;;;5038334;28;45584;-73
2023/11/20 04:46:12;;;;;;;;;0.00;0.00;;;;;;;;5039459;28;45376;-69
2023/11/20 04:48:37;;;;;;;;;4.00;0.00;;;;;;;;5037069;28;47726;-74
2023/11/20 04:51:02;;;;;;;;;4.33;2.00;;;;;;;;5038390;28;45569;-72
2023/11/20 04:53:27;;;;;;;;;4.67;1.67;;;;;;;;5038355;28;45362;-72
2023/11/20 04:55:53;;;;;;;;;4.00;1.00;;;;;;;;5038963;28;45379;-69
2023/11/20 04:58:24;;;;;;;;;7.00;1.00;;;;;;;;5038131;28;46392;-69
2023/11/20 05:00:49;;;;;;;;;4.00;1.00;;;;;;;;5036614;28;45557;-69
2023/11/20 05:03:19;;;;;;;;;5.67;1.67;;;;;;;;5038522;28;45336;-71
2023/11/20 05:05:45;;;;;;;;;1.00;1.00;;;;;;;;5038678;28;45458;-70
2023/11/20 05:08:10;;;;;;;;;4.67;1.00;;;;;;;;5038457;28;48412;-69
2023/11/20 05:10:36;;;;;;;;;2.00;1.00;;;;;;;;5038516;28;45345;-72
2023/11/20 05:13:02;;;;;;;;;4.00;1.00;;;;;;;;5025362;28;45762;-69
2023/11/20 05:15:27;;;;;;;;;7.00;2.00;;;;;;;;5038526;28;45511;-72
2023/11/20 05:17:52;;;;;;;;;4.67;1.33;;;;;;;;5038008;28;45829;-71
2023/11/20 05:20:17;;;;;;;;;6.33;1.00;;;;;;;;5038365;28;45322;-69
2023/11/20 05:22:42;;;;;;;;;4.67;2.00;;;;;;;;5038262;28;45232;-69
2023/11/20 05:25:08;;;;;;;;;3.67;1.67;;;;;;;;5038198;28;45685;-70
2023/11/20 05:27:33;;;;;;;;;1.00;1.00;;;;;;;;5038229;28;45491;-69
2023/11/20 05:29:58;;;;;;;;;4.00;1.00;;;;;;;;5037948;28;45190;-68
2023/11/20 05:32:23;;;;;;;;;3.50;1.25;;;;;;;;5038579;28;45521;-72
2023/11/20 05:34:48;;;;;;;;;1.67;1.00;;;;;;;;5038336;28;45421;-71
2023/11/20 05:37:14;;;;;;;;;7.00;2.00;;;;;;;;5037967;28;45344;-71
2023/11/20 05:39:39;;;;;;;;;5.33;1.33;;;;;;;;5037904;28;45440;-71
2023/11/20 05:42:04;;;;;;;;;3.00;1.00;;;;;;;;5037852;28;45268;-71
2023/11/20 05:44:29;;;;;;;;;5.67;2.00;;;;;;;;5038042;28;45394;-69
2023/11/20 05:46:55;;;;;;;;;5.33;0.00;;;;;;;;5036602;28;47347;-69
2023/11/20 05:49:20;;;;;;;;;4.33;2.00;;;;;;;;5029946;28;45239;-72
2023/11/20 05:51:45;;;;;;;;;2.00;2.00;;;;;;;;5037795;28;45375;-71
2023/11/20 05:54:10;;;;;;;;;7.00;3.00;;;;;;;;5037502;28;45534;-69
2023/11/20 05:56:36;;;;;;;;;1.00;1.00;;;;;;;;5037128;28;45476;-69
2023/11/20 05:59:01;;;;;;;;;3.33;1.00;;;;;;;;5037264;28;45335;-69
2023/11/20 06:01:35;;;;;;;;;5.33;1.33;;;;;;;;5036129;28;45256;-69
2023/11/20 06:04:00;;;;;;;;;1.33;0.00;;;;;;;;5037879;28;45306;-69
2023/11/20 06:06:25;;;;;;;;;5.00;1.33;;;;;;;;5037603;28;46060;-69
2023/11/20 06:08:50;;;;;;;;;2.67;1.00;;;;;;;;5037329;28;45374;-73
2023/11/20 06:11:22;;;;;;;;;3.00;0.00;;;;;;;;5029446;28;45460;-69
2023/11/20 06:13:47;;;;;;;;;1.67;1.33;;;;;;;;5036245;28;45431;-69
2023/11/20 06:16:13;;;;;;;;;3.33;1.00;;;;;;;;5037137;28;45495;-69
2023/11/20 06:18:38;;;;;;;;;5.00;1.00;;;;;;;;5037235;28;45490;-69
2023/11/20 06:21:04;;;;;;;;;6.33;1.00;;;;;;;;5036607;28;46927;-69
2023/11/20 06:23:29;;;;;;;;;5.00;1.00;;;;;;;;5036670;28;45560;-68
2023/11/20 06:25:54;;;;;;;;;2.00;1.00;;;;;;;;5026054;28;46339;-69
2023/11/20 06:28:19;;;;;;;;;4.33;1.00;;;;;;;;5033823;28;45422;-71
2023/11/20 06:30:45;;;;;;;;;0.33;0.33;;;;;;;;5037023;28;45328;-73
2023/11/20 06:33:10;;;;;;;;;3.00;0.00;;;;;;;;5036731;28;45549;-71
2023/11/20 06:35:35;;;;;;;;;4.33;1.00;;;;;;;;5036272;28;46402;-68
2023/11/20 06:38:01;;;;;;;;;3.00;1.00;;;;;;;;5036999;28;45624;-71
2023/11/20 06:40:26;;;;;;;;;4.33;2.00;;;;;;;;5036970;28;45277;-70
2023/11/20 06:42:51;;;;;;;;;2.33;1.33;;;;;;;;5037043;28;45500;-68
2023/11/20 06:45:16;;;;;;;;;1.33;1.33;;;;;;;;5034146;28;45810;-72
2023/11/20 06:47:41;;;;;;;;;13.00;1.67;;;;;;;;5035334;28;45411;-69
2023/11/20 06:50:08;;;;;;;;;8.33;1.00;;;;;;;;5030142;28;45624;-69
2023/11/20 06:52:33;;;;;;;;;4.67;2.00;;;;;;;;5030199;28;45574;-68
2023/11/20 06:54:59;;;;;;;;;2.00;1.00;;;;;;;;5036098;28;45754;-69
2023/11/20 06:57:24;;;;;;;;;3.33;1.00;;;;;;;;5034870;28;45413;-68
2023/11/20 06:59:49;;;;;;;;;5.33;2.00;;;;;;;;5031109;28;45359;-73
2023/11/20 07:02:15;;;;;;;;;1.67;1.00;;;;;;;;5025862;28;45274;-72
2023/11/20 07:04:44;;;;;;;;;3.00;1.67;;;;;;;;5031207;28;46265;-68
2023/11/20 07:07:09;;;;;;;;;3.33;1.00;;;;;;;;5026109;28;45313;-73
2023/11/20 07:09:35;;;;;;;;;2.00;1.00;;;;;;;;5021010;28;45399;-68
2023/11/20 07:12:01;;;;;;;;;2.33;1.00;;;;;;;;5018942;28;45529;-70
2023/11/20 07:14:26;;;;;;;;;6.67;0.67;;;;;;;;5027011;28;46471;-70
2023/11/20 07:16:51;;;;;;;;;1.67;0.00;;;;;;;;5024823;28;45645;-69
2023/11/20 07:19:16;;;;;;;;;3.33;1.00;;;;;;;;5023120;28;45341;-71
2023/11/20 07:21:44;;;;;;;;;0.33;0.00;;;;;;;;5019492;28;45601;-69
2023/11/20 07:24:09;;;;;;;;;6.67;0.67;;;;;;;;5015675;28;47454;-68
2023/11/20 07:26:34;;;;;;;;;2.33;1.00;;;;;;;;5028097;28;45422;-71
2023/11/20 07:28:59;;;;;;;;;1.00;1.00;;;;;;;;5029221;28;45534;-68
2023/11/20 07:31:25;;;;;;;;;1.00;1.00;;;;;;;;5027072;28;45478;-71
2023/11/20 07:33:50;;;;;;;;;2.00;0.67;;;;;;;;5031756;28;45760;-68
2023/11/20 07:36:19;;;;;;;;;3.00;1.33;;;;;;;;5025950;28;45419;-67
2023/11/20 07:38:44;;;;;;;;;1.00;1.00;;;;;;;;5024748;28;45475;-68
2023/11/20 07:41:11;;;;;;;;;3.67;1.00;;;;;;;;5024678;28;45640;-67
2023/11/20 07:43:36;;;;;;;;;5.00;0.00;;;;;;;;5020772;28;46643;-68
2023/11/20 07:46:03;;;;;;;;;1.67;0.00;;;;;;;;5028018;28;45452;-68
2023/11/20 07:48:29;;;;;;;;;3.67;1.00;;;;;;;;5028520;28;46035;-68
2023/11/20 07:50:54;;;;;;;;;5.00;1.00;;;;;;;;5175987;22;45633;-68
2023/11/20 07:53:19;;;;;;;;;3.00;0.00;;;;;;;;5057325;28;45589;-68
2023/11/20 07:55:44;;;;;;;;;9.33;3.00;;;;;;;;5057072;28;45504;-68
2023/11/20 07:58:09;;;;;;;;;4.00;3.00;;;;;;;;5058286;28;45476;-68
2023/11/20 08:00:34;;;;;;;;;5.75;2.00;;;;;;;;5051603;28;45490;-68
2023/11/20 08:03:00;;;;;;;;;2.67;2.00;;;;;;;;5056358;28;45705;-68
2023/11/20 08:05:25;;;;;;;;;4.33;2.33;;;;;;;;5055263;28;45315;-68
2023/11/20 08:07:50;;;;;;;;;2.33;1.00;;;;;;;;5054819;28;45411;-67
2023/11/20 08:10:18;;;;;;;;;1.00;1.00;;;;;;;;5060320;28;45468;-68
2023/11/20 08:12:43;;;;;;;;;0.67;0.67;;;;;;;;5056589;28;45639;-70
2023/11/20 08:15:11;;;;;;;;;0.00;0.00;;;;;;;;5056735;28;45416;-68
2023/11/20 08:17:38;;;;;;;;;4.00;2.00;;;;;;;;5055470;28;45856;-68
2023/11/20 08:20:06;;;;;;;;;1.00;1.00;;;;;;;;5056503;28;45520;-68
2023/11/20 08:22:32;;;;;;;;;4.00;1.00;;;;;;;;5057106;28;45832;-70
2023/11/20 08:24:58;;;;;;;;;1.00;1.00;;;;;;;;5057526;28;45476;-71
2023/11/20 08:27:23;;;;;;;;;4.33;1.00;;;;;;;;5057870;28;45502;-72
2023/11/20 08:29:48;;;;;;;;;2.67;1.00;;;;;;;;5058189;28;45965;-70
2023/11/20 08:32:13;;;;;;;;;1.00;1.00;;;;;;;;5057169;28;47477;-68
2023/11/20 08:34:39;;;;;;;;;2.00;1.00;;;;;;;;5057814;28;46262;-68
2023/11/20 08:37:04;;;;;;;;;4.00;1.00;;;;;;;;5056291;28;45449;-70
2023/11/20 08:39:31;;;;;;;;;2.33;1.00;;;;;;;;5057337;28;45551;-71
2023/11/20 08:41:57;;;;;;;;;0.67;0.00;;;;;;;;5050846;28;46281;-68
2023/11/20 08:44:23;;;;;;;;;3.67;1.00;;;;;;;;5057846;28;45492;-69
2023/11/20 08:46:48;;;;;;;;;3.33;2.33;;;;;;;;5053747;28;45552;-69
2023/11/20 08:49:14;;;;;;;;;4.67;0.33;;;;;;;;5057173;28;45425;-68
2023/11/20 08:51:39;;;;;;;;;2.00;0.33;;;;;;;;5056549;28;47233;-70
2023/11/20 08:54:05;;;;;;;;;6.67;1.00;;;;;;;;5056123;28;45434;-69
2023/11/20 08:56:31;;;;;;;;;5.00;1.00;;;;;;;;5058607;28;45279;-69
2023/11/20 08:58:56;;;;;;;;;1.00;1.00;;;;;;;;5056294;28;45617;-70
2023/11/20 09:01:31;;;;;;;;;2.00;1.00;;;;;;;;5055929;28;46435;-69
2023/11/20 09:03:56;;;;;;;;;1.67;1.00;;;;;;;;5056794;28;45481;-69
2023/11/20 09:06:21;;;;;;;;;1.33;1.33;;;;;;;;5062550;28;45438;-69
2023/11/20 09:08:46;;;;;;;;;1.00;1.00;;;;;;;;5055871;28;45440;-68
2023/11/20 09:11:11;;;;;;;;;1.00;1.00;;;;;;;;5054773;28;45394;-69
2023/11/20 09:13:37;;;;;;;;;1.33;1.33;;;;;;;;5052671;28;45367;-70
2023/11/20 09:16:02;;;;;;;;;2.00;0.67;;;;;;;;5056114;28;45508;-70
2023/11/20 09:18:27;;;;;;;;;2.00;0.33;;;;;;;;5055975;28;45458;-68
2023/11/20 09:20:53;;;;;;;;;0.00;0.00;;;;;;;;5056723;28;45429;-69
2023/11/20 09:23:19;;;;;;;;;5.00;3.00;;;;;;;;5055354;28;45474;-68
2023/11/20 09:25:44;;;;;;;;;3.00;2.67;;;;;;;;5053416;28;45430;-69
2023/11/20 09:28:09;;;;;;;;;0.00;0.00;;;;;;;;5056697;28;45612;-67
2023/11/20 09:30:34;;;;;;;;;1.33;0.67;;;;;;;;5055893;28;47344;-70
2023/11/20 09:33:00;;;;;;;;;4.00;1.00;;;;;;;;5055849;28;45429;-70
2023/11/20 09:35:26;;;;;;;;;5.33;1.00;;;;;;;;5056945;28;45403;-68
2023/11/20 09:37:51;;;;;;;;;4.00;2.33;;;;;;;;5056028;28;45470;-68
2023/11/20 09:40:17;;;;;;;;;0.67;0.67;;;;;;;;5057370;28;46838;-70
2023/11/20 09:42:44;;;;;;;;;1.33;1.00;;;;;;;;5055595;28;45524;-68
2023/11/20 09:45:19;;;;;;;;;1.00;1.00;;;;;;;;5055945;28;45481;-67
2023/11/20 09:47:46;;;;;;;;;1.67;0.00;;;;;;;;5056350;28;45504;-68
2023/11/20 09:50:11;;;;;;;;;6.33;1.00;;;;;;;;5055232;28;46660;-68
2023/11/20 09:52:37;;;;;;;;;1.33;1.00;;;;;;;;5055880;28;45536;-68
2023/11/20 09:55:03;;;;;;;;;1.00;1.00;;;;;;;;5055604;28;45499;-69
2023/11/20 09:57:28;;;;;;;;;4.33;1.00;;;;;;;;5056110;28;45655;-67
2023/11/20 09:59:53;;;;;;;;;0.00;0.00;;;;;;;;5055251;28;46651;-68
2023/11/20 10:02:23;;;;;;;;;1.00;1.00;;;;;;;;5056130;28;45219;-68
2023/11/20 10:04:53;;;;;;;;;1.67;0.00;;;;;;;;5054210;28;45538;-68
2023/11/20 10:07:21;;;;;;;;;3.00;1.00;;;;;;;;5051023;28;45448;-68
2023/11/20 10:09:51;;;;;;;;;2.33;1.00;;;;;;;;5055686;28;45362;-68
2023/11/20 10:12:17;;;;;;;;;2.67;0.67;;;;;;;;5051642;28;45481;-69
2023/11/20 10:14:43;;;;;;;;;3.00;0.33;;;;;;;;5054730;28;45341;-67
2023/11/20 10:17:09;;;;;;;;;2.33;0.00;;;;;;;;5056490;28;45435;-67
2023/11/20 10:19:34;;;;;;;;;1.33;1.00;;;;;;;;5054941;28;46739;-68
2023/11/20 10:22:02;;;;;;;;;2.00;0.67;;;;;;;;5055272;28;45445;-68
2023/11/20 10:24:27;;;;;;;;;7.33;1.00;;;;;;;;5055577;28;45457;-67
2023/11/20 10:26:53;;;;;;;;;2.00;0.00;;;;;;;;5055675;28;45375;-69
2023/11/20 10:29:20;;;;;;;;;0.00;0.00;;;;;;;;5054216;28;47200;-67
2023/11/20 10:31:46;;;;;;;;;3.00;1.33;;;;;;;;5052646;28;45583;-69
2023/11/20 10:34:12;;;;;;;;;2.00;1.00;;;;;;;;5052479;28;45469;-68
2023/11/20 10:36:38;;;;;;;;;5.00;1.33;;;;;;;;5054266;28;45452;-67
2023/11/20 10:39:04;;;;;;;;;3.00;1.00;;;;;;;;5055602;28;46679;-67
2023/11/20 10:41:29;;;;;;;;;2.67;1.00;;;;;;;;5055169;28;45342;-68
2023/11/20 10:43:55;;;;;;;;;1.67;0.00;;;;;;;;5055435;28;45569;-70
2023/11/20 10:46:21;;;;;;;;;2.33;1.00;;;;;;;;5054974;28;45378;-67
2023/11/20 10:48:47;;;;;;;;;3.00;1.33;;;;;;;;5054678;28;47298;-67
2023/11/20 10:51:12;;;;;;;;;0.67;0.00;;;;;;;;5056010;28;45416;-69
2023/11/20 10:53:38;;;;;;;;;0.00;0.00;;;;;;;;5054661;28;45449;-69
2023/11/20 10:56:05;;;;;;;;;5.33;1.67;;;;;;;;5050492;28;45540;-67
2023/11/20 10:58:31;;;;;;;;;6.00;0.00;;;;;;;;5053551;28;46784;-67
2023/11/20 11:00:56;;;;;;;;;2.00;1.00;;;;;;;;5052498;28;46643;-67
2023/11/20 11:03:21;;;;;;;;;4.00;1.00;;;;;;;;5058194;28;45393;-68
2023/11/20 11:05:49;;;;;;;;;2.00;1.00;;;;;;;;5054960;28;45646;-69
2023/11/20 11:08:16;;;;;;;;;2.00;1.00;;;;;;;;5056991;28;46650;-70
2023/11/20 11:10:42;;;;;;;;;1.33;1.00;;;;;;;;5054434;28;45504;-69
2023/11/20 11:13:08;;;;;;;;;2.67;1.00;;;;;;;;5054331;28;45541;-71
2023/11/20 11:15:33;;;;;;;;;0.67;0.67;;;;;;;;5054863;28;45568;-69
2023/11/20 11:18:05;;;;;;;;;3.00;1.00;;;;;;;;5052070;28;46352;-70
2023/11/20 11:20:46;;;;;;;;;3.00;1.33;;;;;;;;5052580;28;45521;-70
2023/11/20 11:23:11;;;;;;;;;4.67;2.00;;;;;;;;5054184;28;45377;-72
2023/11/20 11:25:49;;;;;;;;;4.00;1.00;;;;;;;;5053326;28;45655;-73
2023/11/20 11:28:17;;;;;;;;;2.00;1.00;;;;;;;;5052205;28;46632;-72
2023/11/20 11:30:44;;;;;;;;;3.00;1.00;;;;;;;;5054018;28;45434;-71
2023/11/20 11:33:28;;;;;;;;;4.00;1.67;;;;;;;;5053824;28;45350;-70
2023/11/20 11:35:59;;;;;;;;;1.33;0.67;;;;;;;;5053775;28;45509;-72
2023/11/20 11:38:40;;;;;;;;;2.67;2.00;;;;;;;;5052782;28;46864;-71
2023/11/20 11:41:14;;;;;;;;;4.33;1.00;;;;;;;;5052550;28;45462;-69
2023/11/20 11:44:01;;;;;;;;;4.67;1.33;;;;;;;;5054563;28;45448;-71
2023/11/20 11:46:27;;;;;;;;;1.00;1.00;;;;;;;;5052333;28;45634;-68
2023/11/20 11:48:52;;;;;;;;;5.00;1.00;;;;;;;;5049150;28;45645;-68
2023/11/20 11:51:19;;;;;;;;;2.67;1.00;;;;;;;;5054748;28;45497;-68
2023/11/20 11:54:03;;;;;;;;;2.00;0.67;;;;;;;;5055431;28;45417;-69
2023/11/20 11:56:29;;;;;;;;;1.00;1.00;;;;;;;;5047487;28;46278;-68
2023/11/20 11:58:54;;;;;;;;;0.33;0.33;;;;;;;;5055487;28;46599;-68
2023/11/20 12:01:20;;;;;;;;;5.00;0.67;;;;;;;;5054008;28;45359;-70
2023/11/20 12:03:45;;;;;;;;;6.00;1.00;;;;;;;;5054249;28;45381;-68
2023/11/20 12:06:12;;;;;;;;;2.67;0.67;;;;;;;;5055755;28;45279;-68
2023/11/20 12:08:37;;;;;;;;;2.00;1.00;;;;;;;;5056049;28;45721;-68
2023/11/20 12:11:03;;;;;;;;;1.00;0.00;;;;;;;;5051836;28;45458;-68
2023/11/20 12:13:29;;;;;;;;;0.00;0.00;;;;;;;;5052799;28;45326;-69
2023/11/20 12:16:03;;;;;;;;;0.00;0.00;;;;;;;;5055615;28;45511;-68
2023/11/20 12:18:36;;;;;;;;;1.33;0.67;;;;;;;;5055652;28;46749;-68
2023/11/20 12:21:12;;;;;;;;;4.00;1.00;;;;;;;;5054774;28;45561;-67
2023/11/20 12:23:38;;;;;;;;;3.00;0.00;;;;;;;;5048361;28;45465;-68
2023/11/20 12:26:11;;;;;;;;;4.00;1.00;;;;;;;;5055243;28;45453;-68
2023/11/20 12:28:37;;;;;;;;;1.33;1.00;;;;;;;;5058794;28;47087;-68
2023/11/20 12:31:04;;;;;;;;;1.00;1.00;;;;;;;;5058118;28;45526;-68
2023/11/20 12:33:30;;;;;;;;;2.33;1.00;;;;;;;;5058402;28;45441;-69
2023/11/20 12:35:55;;;;;;;;;1.00;1.00;;;;;;;;5058492;28;45497;-68
2023/11/20 12:38:21;;;;;;;;;1.00;1.00;;;;;;;;5057985;28;46692;-69
2023/11/20 12:40:48;;;;;;;;;1.33;1.33;;;;;;;;5055127;28;45504;-69
2023/11/20 12:43:13;;;;;;;;;0.33;0.00;;;;;;;;5053499;28;45472;-67
2023/11/20 12:45:38;;;;;;;;;3.00;0.00;;;;;;;;5056390;28;45617;-68
2023/11/20 12:48:04;;;;;;;;;4.67;1.00;;;;;;;;5055130;28;45758;-71
2023/11/20 12:50:29;;;;;;;;;3.00;0.67;;;;;;;;5055556;28;45382;-70
2023/11/20 12:52:54;;;;;;;;;2.00;1.00;;;;;;;;5055117;28;45487;-67
2023/11/20 12:55:21;;;;;;;;;0.67;0.00;;;;;;;;5056401;28;45477;-70
2023/11/20 12:57:47;;;;;;;;;0.67;0.67;;;;;;;;5050016;28;46512;-69
2023/11/20 13:00:14;;;;;;;;;1.00;1.00;;;;;;;;5060905;28;45479;-68
2023/11/20 13:03:00;;;;;;;;;2.33;1.00;;;;;;;;5057074;27;45357;-67
2023/11/20 13:05:27;;;;;;;;;2.00;1.00;;;;;;;;5060064;28;45953;-69
2023/11/20 13:07:59;;;;;;;;;3.00;1.00;;;;;;;;5056321;28;46653;-68
2023/11/20 13:10:25;;;;;;;;;0.67;0.67;;;;;;;;5056600;28;45763;-68
2023/11/20 13:12:52;;;;;;;;;2.00;0.33;;;;;;;;5057407;28;45470;-70
2023/11/20 13:15:21;;;;;;;;;0.00;0.00;;;;;;;;5057010;28;45745;-71
2023/11/20 13:17:47;;;;;;;;;2.00;0.67;;;;;;;;5057065;28;46258;-67
2023/11/20 13:20:30;;;;;;;;;0.33;0.33;;;;;;;;5056806;28;45467;-70
2023/11/20 13:22:59;;;;;;;;;2.00;0.00;;;;;;;;5056902;28;45470;-67
2023/11/20 13:25:24;;;;;;;;;2.67;1.00;;;;;;;;5056420;28;45457;-68
2023/11/20 13:27:50;;;;;;;;;3.00;0.00;;;;;;;;5052892;28;45742;-68
2023/11/20 13:30:15;;;;;;;;;2.00;1.00;;;;;;;;5055936;28;45469;-72
2023/11/20 13:32:41;;;;;;;;;2.00;1.00;;;;;;;;5057256;28;45587;-68
2023/11/20 13:35:07;;;;;;;;;3.00;0.00;;;;;;;;5056913;28;45497;-71
2023/11/20 13:37:34;;;;;;;;;1.00;0.00;;;;;;;;5055929;28;45751;-72
2023/11/20 13:39:59;;;;;;;;;4.00;1.00;;;;;;;;5054677;28;45465;-70
2023/11/20 13:42:24;;;;;;;;;3.67;0.00;;;;;;;;5057224;28;45504;-68
2023/11/20 13:44:49;;;;;;;;;0.67;0.00;;;;;;;;5056232;28;45282;-68
2023/11/20 13:47:14;;;;;;;;;4.67;1.00;;;;;;;;5055086;28;45667;-70
2023/11/20 13:49:43;;;;;;;;;2.00;0.00;;;;;;;;5055561;28;45382;-68
2023/11/20 13:52:09;;;;;;;;;2.00;1.00;;;;;;;;5056384;28;45450;-68
2023/11/20 13:54:35;;;;;;;;;2.00;1.00;;;;;;;;5056571;28;45473;-69
2023/11/20 13:57:00;;;;;;;;;2.67;0.00;;;;;;;;5055618;28;46531;-68
2023/11/20 13:59:25;;;;;;;;;2.67;0.00;;;;;;;;5055817;28;45369;-68
2023/11/20 14:01:50;;;;;;;;;2.00;0.00;;;;;;;;5055571;28;46138;-68
2023/11/20 14:04:19;;;;;;;;;2.00;0.33;;;;;;;;5056663;28;45534;-70
2023/11/20 14:06:44;;;;;;;;;3.00;1.00;;;;;;;;5047253;28;45540;-71
2023/11/20 14:09:09;;;;;;;;;2.67;0.00;;;;;;;;5054752;28;45374;-67
2023/11/20 14:11:34;;;;;;;;;1.00;0.00;;;;;;;;5051329;28;45629;-72
2023/11/20 14:14:01;;;;;;;;;2.67;1.00;;;;;;;;5054156;28;45484;-68
2023/11/20 14:16:26;;;;;;;;;2.00;1.00;;;;;;;;5054156;28;45467;-68
2023/11/20 14:18:51;;;;;;;;;2.33;0.00;;;;;;;;5054488;28;45902;-69
2023/11/20 14:21:16;;;;;;;;;1.67;1.00;;;;;;;;5055493;28;45322;-68
2023/11/20 14:23:44;;;;;;;;;2.00;0.00;;;;;;;;5055573;28;45560;-68
2023/11/20 14:26:16;;;;;;;;;1.33;1.00;;;;;;;;5060089;28;46340;-67
2023/11/20 14:28:42;;;;;;;;;6.00;1.00;;;;;;;;5051769;27;45488;-68
2023/11/20 14:31:07;;;;;;;;;5.00;1.00;;;;;;;;5055118;28;45302;-68
2023/11/20 14:33:33;;;;;;;;;0.00;0.00;;;;;;;;5055311;28;45620;-68
2023/11/20 14:35:59;;;;;;;;;3.00;1.33;;;;;;;;5049066;28;46434;-68
2023/11/20 14:38:24;;;;;;;;;0.67;0.00;;;;;;;;5053322;28;45641;-68